METAR AND TAF INFORMATION
METAR FOR EHKD
ADDS - METARS form results

(0841 UTC 09 April 2020)
Data provider http://aviationweather.gov/metar/data/
 
METAR text: EHKD 090825Z AUTO 02008KT 350V060 9999 SCT053 13/08 Q1026 BLU VRB02KT CAVOK
Conditions at: EHKD (DE KOOY (NAVY) , NL) observed 0825 UTC 09 April 2020
Temperature: 13.0°C (55°F)
Dewpoint: 8.0°C (46°F) [RH = 72%]
Pressure (altimeter): 30.30 inches Hg (1026.0 mb)
Winds: from the NNE (20 degrees) at 9 MPH (8 knots; 4.1 m/s)
Visibility: 6 or more miles (10+ km)
Ceiling: at least 12,000 feet AGL
Clouds: scattered clouds at 5300 feet AGL
Weather: no significant weather observed at this time

METAR text: EHKD 090755Z AUTO 34006KT 270V050 9999 SCT053 11/08 Q1026 BLU VRB02KT CAVOK
Conditions at: EHKD (DE KOOY (NAVY) , NL) observed 0755 UTC 09 April 2020
Temperature: 11.0°C (52°F)
Dewpoint: 8.0°C (46°F) [RH = 82%]
Pressure (altimeter): 30.30 inches Hg (1026.0 mb)
Winds: from the NNW (340 degrees) at 7 MPH (6 knots; 3.1 m/s)
Visibility: 6 or more miles (10+ km)
Ceiling: at least 12,000 feet AGL
Clouds: scattered clouds at 5300 feet AGL
Weather: no significant weather observed at this time

METAR text: EHKD 090753Z AUTO 35006KT 280V030 9999 BKN053 12/08 Q1026 BLU VRB02KT CAVOK
Conditions at: EHKD (DE KOOY (NAVY) , NL) observed 0753 UTC 09 April 2020
Temperature: 12.0°C (54°F)
Dewpoint: 8.0°C (46°F) [RH = 76%]
Pressure (altimeter): 30.30 inches Hg (1026.0 mb)
Winds: from the N (350 degrees) at 7 MPH (6 knots; 3.1 m/s)
Visibility: 6 or more miles (10+ km)
Ceiling: 5300 feet AGL
Clouds: broken clouds at 5300 feet AGL
Weather: no significant weather observed at this time

Forecast for: EHKD (DE KOOY (NAVY) , NL)
Text: TAF EHKD 090432Z 0905/0917 VRB02KT 2500 MIFG BR NSC
Forecast period: 0500 to 1700 UTC 09 April 2020
Forecast type: FROM: standard forecast or significant change
Winds: variable direction winds at 2 MPH (2 knots; 1.0 m/s)
Visibility: 1.55 miles (2.49 km)
Ceiling: unknown
Clouds: missing
Weather: MIFG BR  (shallow fog, mist)
Text: BECMG 0905/0907 CAVOK
Forecast period: 0500 to 0800 UTC 09 April 2020
Forecast type: BECOMING: Conditions expected to become as follows by 0700 UTC 09 April 2020
Winds: variable direction winds at 2 MPH (2 knots; 1.0 m/s)
Visibility: 6 or more miles 10+ km)
Ceiling: unknown
Clouds: missing
Weather: NSW  (no significant weather)
Text: BECMG 0908/0910 03005KT
Forecast period: 0800 to 1300 UTC 09 April 2020
Forecast type: BECOMING: Conditions expected to become as follows by 1000 UTC 09 April 2020
Winds: from the NNE (30 degrees) at 6 MPH (5 knots; 2.6 m/s)
Visibility: 6 or more miles 10+ km)
Ceiling: unknown
Clouds: missing
Weather: NSW  (no significant weather)
Text: BECMG 0913/0916 05010KT
Forecast period: 1300 to 1700 UTC 09 April 2020
Forecast type: BECOMING: Conditions expected to become as follows by 1600 UTC 09 April 2020
Winds: from the NE (50 degrees) at 12 MPH (10 knots; 5.1 m/s)
Visibility: 6 or more miles 10+ km)
Ceiling: unknown
Clouds: missing
Weather: NSW  (no significant weather)

 AIRPORT MAP

 RUNWAY INFORMATION
Runway 04 Runway length 4183 ft Runway width 98 ft
Runway elevation 3 ft Runway displaced threshold 804 ft Runway heading 34
Runway 22 Runway length 4183 ft Runway width 98 ft
Runway elevation 2 ft Runway displaced threshold 804 ft Runway heading 214

 AIRPORT FREQUENCIES
Type APP Name APP Frequency 119.1 MHZ
Type FSS Name FINAL Frequency 123.3 MHZ
Type GND Name GND Frequency 121.725 MHZ
Type TWR Name TWR Frequency 120.125 MHZ

 AIRPORT NEAR NAVIGATION AIDS
Type VOR-DME Name Den Helder Frequency 115550 KHZ